KOLS/OLS METAR and TAF weather

Enter ICAO airport designator
Station Type Date Time Source
KOLS METAR 2019/12/07 06:54 UTC NOAA

KOLS 070654Z AUTO 12003KT 10SM CLR 09/03 A3023 RMK AO2 SLP198 T00890028 402280033


Station Type Date Time Source
KOLS Decoded METAR 2019/12/07 06:54 UTC NOAA

NOGALES INTERNATIONAL AIRPORT , AZ, United States (KOLS) 31-25N 110-51W 1184M
Dec 07, 2019 - 01:54 AM EST / 2019.12.07 0654 UTC
Wind: from the ESE (120 degrees) at 3 MPH (3 KT):0
Visibility: 10 mile(s):0
Sky conditions: clear
Temperature: 48.0 F (8.9 C)
Dew Point: 37.0 F (2.8 C)
Relative Humidity: 65%
Pressure (altimeter): 30.23 in. Hg (1023 hPa)
ob: KOLS 070654Z AUTO 12003KT 10SM CLR 09/03 A3023 RMK AO2 SLP198 T00890028 402280033
cycle: 7

Station Type Date Time Source
KOLS TAF 2019/12/07 06:30 UTC NOAA

TAF KOLS 070528Z 0706/0806 VRB03KT P6SM SCT130 BKN200
FM071900 28006KT P6SM SCT100 BKN140
FM080300 VRB03KT P6SM BKN090

Example: see airport list